Meteo Giornale » Osservazioni meteo Stati Uniti (USA) » Emigrant Gap Blue Canyon Nyack
ore: 10:52 - Osservazioni Meteo Emigrant Gap Blue Canyon Nyack
Lat. 39° 16' N Lon. 120° 42' W Alt. 1610 metri s.l.m.
14 °C
Sereno
Temp. 24 Ore
11 °C
22 °C
Sud
20.3 Km/h
Dew point 3 °C
Umidità 47 %
Visibilità 10 Km
Il sole sorge alle ore 06:31
Il sole tramonta alle ore 19:33
| Data e Ora | Cielo e Fenomeni | T °C | DP °C | Um. % | Pres. hPa | Vis. km | Vento km/h | |
|---|---|---|---|---|---|---|---|---|
| Oggi h: 10:52 | Sereno | 14 | 3 | 47 | 1019 | 10 | S 20.3 | |
| Oggi h: 09:52 | Sereno | 14 | 3 | 47 | 1018 | 14 | S 18.5 | |
| Oggi h: 08:52 | Sereno | 14 | 3 | 47 | 1018 | 13 | S 18.5 | |
| Oggi h: 07:52 | Sereno | 13 | 3 | 50 | 1017 | 13 | S/SE 13 | |
| Oggi h: 06:52 | Foschia | 11 | -1 | 43 | 1017 | 10 | SE 7.4 | |
| Oggi h: 05:52 | Sereno | 12 | -1 | 40 | 1017 | 13 | N 7.4 | |
| Oggi h: 04:52 | Sereno | 11 | -2 | 40 | 1017 | 13 | N 5.5 | |
| Oggi h: 03:52 | Sereno | 12 | -3 | 34 | 1017 | 11 | N 5.5 | |
| Oggi h: 02:52 | Sereno | 13 | -2 | 35 | 1017 | 14 | SE 7.4 | |
| Oggi h: 01:52 | Sereno | 13 | 1 | 43 | 1017 | 10 | N 0 | |
| Oggi h: 00:52 | Sereno | 13 | 4 | 54 | 1018 | 10 | S 9.3 | |
| Ieri h: 23:52 | Sereno | 14 | 4 | 50 | 1018 | 10 | S/SE 7.4 | |
| Ieri h: 22:52 | Sereno | 14 | 5 | 54 | 1018 | 10 | N 5.5 | |
| Ieri h: 21:52 | Sereno | 14 | 4 | 50 | 1018 | 10 | N 5.5 | |
| Ieri h: 20:52 | Sereno | 14 | 4 | 50 | 1018 | 10 | N 0 | |
| Ieri h: 19:52 | Sereno | 15 | 4 | 47 | 1017 | 10 | N 0 | |
| Ieri h: 18:52 | Sereno | 18 | 4 | 39 | 1018 | 10 | S 11.1 | |
| Ieri h: 17:52 | Sereno | 19 | 4 | 37 | 1018 | 13 | S/SO 13 | |
| Ieri h: 16:52 | Sereno | 21 | 4 | 32 | 1018 | 11 | S 18.5 | |
| Ieri h: 15:52 | Sereno | 21 | 3 | 30 | 1018 | 10 | S 18.5 | |
| Ieri h: 14:52 | Sereno | 22 | 4 | 30 | 1019 | 10 | S 14.8 | |
| Ieri h: 13:52 | Sereno | 22 | 3 | 28 | 1019 | 10 | S 22.2 | |
| Ieri h: 12:52 | Sereno | 22 | 1 | 24 | 1019 | 10 | N 0 | |
| Ieri h: 11:52 | Sereno | 22 | 2 | 26 | 1019 | 10 | N 11.1 | |



